sensor_id;sensor_type;location;lat;lon;timestamp;P1;durP1;ratioP1;P2;durP2;ratioP2
62880;SDS011;48969;49.934;8.596;2023-04-25T00:00:12;4.22;;;3.83;;
62880;SDS011;48969;49.934;8.596;2023-04-25T00:02:38;5.30;;;4.20;;
62880;SDS011;48969;49.934;8.596;2023-04-25T00:05:03;4.30;;;3.88;;
62880;SDS011;48969;49.934;8.596;2023-04-25T00:07:28;4.13;;;3.78;;
62880;SDS011;48969;49.934;8.596;2023-04-25T00:09:53;4.17;;;3.77;;
62880;SDS011;48969;49.934;8.596;2023-04-25T00:12:18;4.68;;;4.22;;
62880;SDS011;48969;49.934;8.596;2023-04-25T00:14:44;4.80;;;4.35;;
62880;SDS011;48969;49.934;8.596;2023-04-25T00:17:11;5.43;;;4.68;;
62880;SDS011;48969;49.934;8.596;2023-04-25T00:19:37;5.53;;;4.97;;
62880;SDS011;48969;49.934;8.596;2023-04-25T00:22:02;5.55;;;4.95;;
62880;SDS011;48969;49.934;8.596;2023-04-25T00:24:28;5.60;;;5.10;;
62880;SDS011;48969;49.934;8.596;2023-04-25T00:26:53;5.57;;;4.90;;
62880;SDS011;48969;49.934;8.596;2023-04-25T00:29:18;6.10;;;5.20;;
62880;SDS011;48969;49.934;8.596;2023-04-25T00:31:43;5.60;;;5.10;;
62880;SDS011;48969;49.934;8.596;2023-04-25T00:34:08;5.90;;;5.30;;
62880;SDS011;48969;49.934;8.596;2023-04-25T00:36:33;5.67;;;5.07;;
62880;SDS011;48969;49.934;8.596;2023-04-25T00:38:59;6.45;;;5.80;;
62880;SDS011;48969;49.934;8.596;2023-04-25T00:41:25;5.88;;;5.32;;
62880;SDS011;48969;49.934;8.596;2023-04-25T00:43:50;6.45;;;5.80;;
62880;SDS011;48969;49.934;8.596;2023-04-25T00:46:15;6.18;;;5.50;;
62880;SDS011;48969;49.934;8.596;2023-04-25T00:48:41;6.75;;;6.07;;
62880;SDS011;48969;49.934;8.596;2023-04-25T00:51:06;6.80;;;6.10;;
62880;SDS011;48969;49.934;8.596;2023-04-25T00:53:31;6.18;;;5.57;;
62880;SDS011;48969;49.934;8.596;2023-04-25T00:55:57;6.75;;;5.72;;
62880;SDS011;48969;49.934;8.596;2023-04-25T00:58:22;6.65;;;6.05;;
62880;SDS011;48969;49.934;8.596;2023-04-25T01:00:48;6.50;;;5.90;;
62880;SDS011;48969;49.934;8.596;2023-04-25T01:03:15;6.68;;;6.00;;
62880;SDS011;48969;49.934;8.596;2023-04-25T01:05:42;7.50;;;6.70;;
62880;SDS011;48969;49.934;8.596;2023-04-25T01:08:07;6.53;;;5.60;;
62880;SDS011;48969;49.934;8.596;2023-04-25T01:10:33;6.32;;;5.72;;
62880;SDS011;48969;49.934;8.596;2023-04-25T01:12:58;6.72;;;5.97;;
62880;SDS011;48969;49.934;8.596;2023-04-25T01:15:23;7.50;;;6.80;;
62880;SDS011;48969;49.934;8.596;2023-04-25T01:17:49;6.88;;;6.28;;
62880;SDS011;48969;49.934;8.596;2023-04-25T01:20:14;7.70;;;6.65;;
62880;SDS011;48969;49.934;8.596;2023-04-25T01:22:40;7.85;;;7.07;;
62880;SDS011;48969;49.934;8.596;2023-04-25T01:25:05;7.88;;;7.07;;
62880;SDS011;48969;49.934;8.596;2023-04-25T01:27:31;7.22;;;6.28;;
62880;SDS011;48969;49.934;8.596;2023-04-25T01:29:57;7.50;;;6.75;;
62880;SDS011;48969;49.934;8.596;2023-04-25T01:32:22;7.10;;;6.40;;
62880;SDS011;48969;49.934;8.596;2023-04-25T01:34:48;6.90;;;6.20;;
62880;SDS011;48969;49.934;8.596;2023-04-25T01:37:13;7.60;;;6.68;;
62880;SDS011;48969;49.934;8.596;2023-04-25T01:39:38;7.65;;;6.90;;
62880;SDS011;48969;49.934;8.596;2023-04-25T01:42:03;8.13;;;7.33;;
62880;SDS011;48969;49.934;8.596;2023-04-25T01:44:29;7.80;;;6.90;;
62880;SDS011;48969;49.934;8.596;2023-04-25T01:46:54;7.50;;;6.60;;
62880;SDS011;48969;49.934;8.596;2023-04-25T01:49:19;7.72;;;6.95;;
62880;SDS011;48969;49.934;8.596;2023-04-25T01:51:44;7.78;;;6.72;;
62880;SDS011;48969;49.934;8.596;2023-04-25T01:54:09;7.70;;;6.45;;
62880;SDS011;48969;49.934;8.596;2023-04-25T01:56:36;7.80;;;7.00;;
62880;SDS011;48969;49.934;8.596;2023-04-25T01:59:01;7.20;;;6.50;;
62880;SDS011;48969;49.934;8.596;2023-04-25T02:01:26;7.88;;;6.80;;
62880;SDS011;48969;49.934;8.596;2023-04-25T02:03:51;7.15;;;6.45;;
62880;SDS011;48969;49.934;8.596;2023-04-25T02:06:17;7.63;;;6.88;;
62880;SDS011;48969;49.934;8.596;2023-04-25T02:08:42;8.35;;;6.55;;
62880;SDS011;48969;49.934;8.596;2023-04-25T02:11:07;7.72;;;6.93;;
62880;SDS011;48969;49.934;8.596;2023-04-25T02:13:32;7.47;;;6.67;;
62880;SDS011;48969;49.934;8.596;2023-04-25T02:15:57;8.02;;;7.20;;
62880;SDS011;48969;49.934;8.596;2023-04-25T02:18:22;8.02;;;7.22;;
62880;SDS011;48969;49.934;8.596;2023-04-25T02:20:48;8.35;;;7.55;;
62880;SDS011;48969;49.934;8.596;2023-04-25T02:23:13;8.10;;;7.25;;
62880;SDS011;48969;49.934;8.596;2023-04-25T02:25:40;7.60;;;6.80;;
62880;SDS011;48969;49.934;8.596;2023-04-25T02:28:05;8.00;;;7.30;;
62880;SDS011;48969;49.934;8.596;2023-04-25T02:30:30;8.32;;;7.32;;
62880;SDS011;48969;49.934;8.596;2023-04-25T02:32:55;8.05;;;7.25;;
62880;SDS011;48969;49.934;8.596;2023-04-25T02:35:21;7.72;;;7.03;;
62880;SDS011;48969;49.934;8.596;2023-04-25T02:37:46;7.57;;;6.80;;
62880;SDS011;48969;49.934;8.596;2023-04-25T02:40:11;7.83;;;6.93;;
62880;SDS011;48969;49.934;8.596;2023-04-25T02:42:37;7.15;;;6.30;;
62880;SDS011;48969;49.934;8.596;2023-04-25T02:45:02;7.67;;;6.90;;
62880;SDS011;48969;49.934;8.596;2023-04-25T02:47:28;7.57;;;6.88;;
62880;SDS011;48969;49.934;8.596;2023-04-25T02:49:53;7.53;;;6.82;;
62880;SDS011;48969;49.934;8.596;2023-04-25T02:52:18;7.35;;;6.65;;
62880;SDS011;48969;49.934;8.596;2023-04-25T02:54:43;7.93;;;6.97;;
62880;SDS011;48969;49.934;8.596;2023-04-25T02:57:08;8.13;;;7.32;;
62880;SDS011;48969;49.934;8.596;2023-04-25T02:59:33;7.18;;;6.28;;
62880;SDS011;48969;49.934;8.596;2023-04-25T03:01:59;7.80;;;6.88;;
62880;SDS011;48969;49.934;8.596;2023-04-25T03:04:24;7.50;;;6.72;;
62880;SDS011;48969;49.934;8.596;2023-04-25T03:06:50;7.75;;;6.97;;
62880;SDS011;48969;49.934;8.596;2023-04-25T03:09:15;7.63;;;6.90;;
62880;SDS011;48969;49.934;8.596;2023-04-25T03:11:40;7.90;;;7.15;;
62880;SDS011;48969;49.934;8.596;2023-04-25T03:14:05;7.55;;;6.85;;
62880;SDS011;48969;49.934;8.596;2023-04-25T03:16:30;7.18;;;6.47;;
62880;SDS011;48969;49.934;8.596;2023-04-25T03:18:56;8.13;;;6.53;;
62880;SDS011;48969;49.934;8.596;2023-04-25T03:21:22;8.30;;;7.35;;
62880;SDS011;48969;49.934;8.596;2023-04-25T03:23:47;7.80;;;7.00;;
62880;SDS011;48969;49.934;8.596;2023-04-25T03:26:12;7.72;;;6.78;;
62880;SDS011;48969;49.934;8.596;2023-04-25T03:28:37;7.17;;;6.47;;
62880;SDS011;48969;49.934;8.596;2023-04-25T03:31:02;8.57;;;7.17;;
62880;SDS011;48969;49.934;8.596;2023-04-25T03:33:27;7.90;;;7.10;;
62880;SDS011;48969;49.934;8.596;2023-04-25T03:35:53;8.10;;;7.23;;
62880;SDS011;48969;49.934;8.596;2023-04-25T03:38:18;8.20;;;7.40;;
62880;SDS011;48969;49.934;8.596;2023-04-25T03:40:43;7.82;;;7.10;;
62880;SDS011;48969;49.934;8.596;2023-04-25T03:43:08;8.23;;;7.43;;
62880;SDS011;48969;49.934;8.596;2023-04-25T03:45:34;8.52;;;7.50;;
62880;SDS011;48969;49.934;8.596;2023-04-25T03:51:02;8.93;;;8.03;;
62880;SDS011;48969;49.934;8.596;2023-04-25T03:53:27;8.15;;;7.35;;
62880;SDS011;48969;49.934;8.596;2023-04-25T03:55:53;9.55;;;8.65;;
62880;SDS011;48969;49.934;8.596;2023-04-25T03:58:18;8.43;;;7.63;;
62880;SDS011;48969;49.934;8.596;2023-04-25T04:00:43;8.70;;;7.87;;
62880;SDS011;48969;49.934;8.596;2023-04-25T04:03:08;9.70;;;7.43;;
62880;SDS011;48969;49.934;8.596;2023-04-25T04:05:33;9.13;;;8.23;;
62880;SDS011;48969;49.934;8.596;2023-04-25T04:07:59;9.05;;;8.15;;
62880;SDS011;48969;49.934;8.596;2023-04-25T04:10:24;9.23;;;8.27;;
62880;SDS011;48969;49.934;8.596;2023-04-25T04:12:51;9.38;;;8.48;;
62880;SDS011;48969;49.934;8.596;2023-04-25T04:15:16;8.77;;;7.88;;
62880;SDS011;48969;49.934;8.596;2023-04-25T04:17:41;8.50;;;7.67;;
62880;SDS011;48969;49.934;8.596;2023-04-25T04:20:06;9.43;;;8.48;;
62880;SDS011;48969;49.934;8.596;2023-04-25T04:22:32;9.75;;;8.85;;
62880;SDS011;48969;49.934;8.596;2023-04-25T04:24:57;10.32;;;9.32;;
62880;SDS011;48969;49.934;8.596;2023-04-25T04:27:23;9.27;;;8.38;;
62880;SDS011;48969;49.934;8.596;2023-04-25T04:29:48;12.35;;;10.23;;
62880;SDS011;48969;49.934;8.596;2023-04-25T04:32:14;13.05;;;10.25;;
62880;SDS011;48969;49.934;8.596;2023-04-25T04:34:39;13.73;;;9.55;;
62880;SDS011;48969;49.934;8.596;2023-04-25T04:37:06;11.80;;;10.05;;
62880;SDS011;48969;49.934;8.596;2023-04-25T04:39:32;10.65;;;8.45;;
62880;SDS011;48969;49.934;8.596;2023-04-25T04:41:57;11.30;;;8.75;;
62880;SDS011;48969;49.934;8.596;2023-04-25T04:44:22;11.40;;;7.75;;
62880;SDS011;48969;49.934;8.596;2023-04-25T04:46:47;9.93;;;7.35;;
62880;SDS011;48969;49.934;8.596;2023-04-25T04:49:13;10.80;;;7.20;;
62880;SDS011;48969;49.934;8.596;2023-04-25T04:51:39;10.48;;;6.68;;
62880;SDS011;48969;49.934;8.596;2023-04-25T04:54:05;9.73;;;7.07;;
62880;SDS011;48969;49.934;8.596;2023-04-25T04:56:30;11.25;;;7.90;;
62880;SDS011;48969;49.934;8.596;2023-04-25T04:58:56;9.07;;;7.10;;
62880;SDS011;48969;49.934;8.596;2023-04-25T05:01:21;11.68;;;7.82;;
62880;SDS011;48969;49.934;8.596;2023-04-25T05:03:47;11.90;;;7.97;;
62880;SDS011;48969;49.934;8.596;2023-04-25T05:06:12;11.98;;;7.32;;
62880;SDS011;48969;49.934;8.596;2023-04-25T05:08:37;10.25;;;8.27;;
62880;SDS011;48969;49.934;8.596;2023-04-25T05:11:02;12.98;;;8.27;;
62880;SDS011;48969;49.934;8.596;2023-04-25T05:13:28;10.32;;;7.45;;
62880;SDS011;48969;49.934;8.596;2023-04-25T05:15:53;14.13;;;8.07;;
62880;SDS011;48969;49.934;8.596;2023-04-25T05:18:18;13.75;;;9.05;;
62880;SDS011;48969;49.934;8.596;2023-04-25T05:20:43;11.60;;;7.78;;
62880;SDS011;48969;49.934;8.596;2023-04-25T05:23:08;12.35;;;8.23;;
62880;SDS011;48969;49.934;8.596;2023-04-25T05:25:34;13.32;;;7.90;;
62880;SDS011;48969;49.934;8.596;2023-04-25T05:27:59;13.40;;;8.45;;
62880;SDS011;48969;49.934;8.596;2023-04-25T05:30:25;13.63;;;8.38;;
62880;SDS011;48969;49.934;8.596;2023-04-25T05:32:50;13.75;;;8.85;;
62880;SDS011;48969;49.934;8.596;2023-04-25T05:35:15;13.13;;;8.65;;
62880;SDS011;48969;49.934;8.596;2023-04-25T05:37:40;12.73;;;8.13;;
62880;SDS011;48969;49.934;8.596;2023-04-25T05:40:06;13.40;;;8.45;;
62880;SDS011;48969;49.934;8.596;2023-04-25T05:42:32;13.00;;;8.23;;
62880;SDS011;48969;49.934;8.596;2023-04-25T05:44:57;14.82;;;9.35;;
62880;SDS011;48969;49.934;8.596;2023-04-25T05:47:22;13.60;;;9.02;;
62880;SDS011;48969;49.934;8.596;2023-04-25T05:49:47;13.20;;;8.75;;
62880;SDS011;48969;49.934;8.596;2023-04-25T05:52:13;15.70;;;9.82;;
62880;SDS011;48969;49.934;8.596;2023-04-25T05:54:38;13.38;;;9.73;;
62880;SDS011;48969;49.934;8.596;2023-04-25T05:57:03;13.47;;;9.50;;
62880;SDS011;48969;49.934;8.596;2023-04-25T05:59:28;14.13;;;9.57;;
62880;SDS011;48969;49.934;8.596;2023-04-25T06:01:53;14.90;;;9.48;;
62880;SDS011;48969;49.934;8.596;2023-04-25T06:04:19;12.93;;;9.05;;
62880;SDS011;48969;49.934;8.596;2023-04-25T06:06:45;13.80;;;9.75;;
62880;SDS011;48969;49.934;8.596;2023-04-25T06:09:10;12.40;;;9.48;;
62880;SDS011;48969;49.934;8.596;2023-04-25T06:11:35;12.00;;;9.40;;
62880;SDS011;48969;49.934;8.596;2023-04-25T06:14:00;12.10;;;9.40;;
62880;SDS011;48969;49.934;8.596;2023-04-25T06:16:26;10.95;;;8.15;;
62880;SDS011;48969;49.934;8.596;2023-04-25T06:18:51;14.27;;;8.60;;
62880;SDS011;48969;49.934;8.596;2023-04-25T06:21:16;14.30;;;9.50;;
62880;SDS011;48969;49.934;8.596;2023-04-25T06:23:41;13.63;;;8.80;;
62880;SDS011;48969;49.934;8.596;2023-04-25T06:26:06;15.07;;;7.95;;
62880;SDS011;48969;49.934;8.596;2023-04-25T06:28:32;12.68;;;7.95;;
62880;SDS011;48969;49.934;8.596;2023-04-25T06:30:57;12.70;;;7.90;;
62880;SDS011;48969;49.934;8.596;2023-04-25T06:33:22;13.40;;;8.65;;
62880;SDS011;48969;49.934;8.596;2023-04-25T06:35:49;12.90;;;8.88;;
62880;SDS011;48969;49.934;8.596;2023-04-25T06:38:15;13.43;;;9.98;;
62880;SDS011;48969;49.934;8.596;2023-04-25T06:40:40;10.77;;;7.78;;
62880;SDS011;48969;49.934;8.596;2023-04-25T06:43:05;10.30;;;6.93;;
62880;SDS011;48969;49.934;8.596;2023-04-25T06:45:30;12.10;;;7.40;;
62880;SDS011;48969;49.934;8.596;2023-04-25T06:47:56;11.05;;;6.82;;
62880;SDS011;48969;49.934;8.596;2023-04-25T06:50:21;12.18;;;6.78;;
62880;SDS011;48969;49.934;8.596;2023-04-25T06:52:46;10.52;;;7.10;;
62880;SDS011;48969;49.934;8.596;2023-04-25T06:55:12;12.65;;;7.50;;
62880;SDS011;48969;49.934;8.596;2023-04-25T06:57:37;10.57;;;7.30;;
62880;SDS011;48969;49.934;8.596;2023-04-25T07:00:02;9.70;;;7.32;;
62880;SDS011;48969;49.934;8.596;2023-04-25T07:02:30;10.70;;;7.75;;
62880;SDS011;48969;49.934;8.596;2023-04-25T07:04:55;9.25;;;6.80;;
62880;SDS011;48969;49.934;8.596;2023-04-25T07:07:24;11.15;;;6.88;;
62880;SDS011;48969;49.934;8.596;2023-04-25T07:09:49;10.38;;;6.43;;
62880;SDS011;48969;49.934;8.596;2023-04-25T07:12:15;13.80;;;6.97;;
62880;SDS011;48969;49.934;8.596;2023-04-25T07:14:40;10.97;;;5.30;;
62880;SDS011;48969;49.934;8.596;2023-04-25T07:17:05;8.70;;;5.03;;
62880;SDS011;48969;49.934;8.596;2023-04-25T07:19:31;10.32;;;7.03;;
62880;SDS011;48969;49.934;8.596;2023-04-25T07:21:57;11.38;;;7.07;;
62880;SDS011;48969;49.934;8.596;2023-04-25T07:24:22;9.88;;;6.78;;
62880;SDS011;48969;49.934;8.596;2023-04-25T07:26:47;13.82;;;7.72;;
62880;SDS011;48969;49.934;8.596;2023-04-25T07:29:12;11.20;;;7.32;;
62880;SDS011;48969;49.934;8.596;2023-04-25T07:31:38;10.43;;;6.95;;
62880;SDS011;48969;49.934;8.596;2023-04-25T07:34:03;10.25;;;7.28;;
62880;SDS011;48969;49.934;8.596;2023-04-25T07:36:28;11.13;;;6.15;;
62880;SDS011;48969;49.934;8.596;2023-04-25T07:38:53;9.27;;;5.40;;
62880;SDS011;48969;49.934;8.596;2023-04-25T07:41:19;10.30;;;5.63;;
62880;SDS011;48969;49.934;8.596;2023-04-25T07:43:44;8.55;;;5.03;;
62880;SDS011;48969;49.934;8.596;2023-04-25T07:46:10;7.93;;;5.28;;
62880;SDS011;48969;49.934;8.596;2023-04-25T07:48:35;8.23;;;5.38;;
62880;SDS011;48969;49.934;8.596;2023-04-25T07:51:00;8.55;;;5.40;;
62880;SDS011;48969;49.934;8.596;2023-04-25T07:53:25;8.73;;;5.55;;
62880;SDS011;48969;49.934;8.596;2023-04-25T07:55:51;10.70;;;5.63;;
62880;SDS011;48969;49.934;8.596;2023-04-25T07:58:16;9.27;;;4.88;;
62880;SDS011;48969;49.934;8.596;2023-04-25T08:00:46;9.38;;;4.43;;
62880;SDS011;48969;49.934;8.596;2023-04-25T08:03:11;8.38;;;4.70;;
62880;SDS011;48969;49.934;8.596;2023-04-25T08:05:37;10.25;;;4.38;;
62880;SDS011;48969;49.934;8.596;2023-04-25T08:08:02;9.30;;;4.75;;
62880;SDS011;48969;49.934;8.596;2023-04-25T08:10:27;9.40;;;4.72;;
62880;SDS011;48969;49.934;8.596;2023-04-25T08:12:53;9.48;;;5.10;;
62880;SDS011;48969;49.934;8.596;2023-04-25T08:15:18;8.55;;;4.47;;
62880;SDS011;48969;49.934;8.596;2023-04-25T08:17:43;9.57;;;5.07;;
62880;SDS011;48969;49.934;8.596;2023-04-25T08:20:09;10.68;;;5.38;;
62880;SDS011;48969;49.934;8.596;2023-04-25T08:22:34;9.15;;;4.72;;
62880;SDS011;48969;49.934;8.596;2023-04-25T08:24:59;7.47;;;4.25;;
62880;SDS011;48969;49.934;8.596;2023-04-25T08:27:25;6.90;;;4.00;;
62880;SDS011;48969;49.934;8.596;2023-04-25T08:29:50;7.32;;;3.70;;
62880;SDS011;48969;49.934;8.596;2023-04-25T08:32:16;8.82;;;4.55;;
62880;SDS011;48969;49.934;8.596;2023-04-25T08:34:41;4.28;;;3.65;;
62880;SDS011;48969;49.934;8.596;2023-04-25T08:37:08;7.65;;;3.88;;
62880;SDS011;48969;49.934;8.596;2023-04-25T08:39:34;5.90;;;3.75;;
62880;SDS011;48969;49.934;8.596;2023-04-25T08:42:00;6.75;;;3.60;;
62880;SDS011;48969;49.934;8.596;2023-04-25T08:44:25;7.03;;;4.03;;
62880;SDS011;48969;49.934;8.596;2023-04-25T08:46:51;8.55;;;4.22;;
62880;SDS011;48969;49.934;8.596;2023-04-25T08:49:17;6.57;;;3.80;;
62880;SDS011;48969;49.934;8.596;2023-04-25T08:51:44;7.03;;;3.63;;
62880;SDS011;48969;49.934;8.596;2023-04-25T08:54:11;5.60;;;4.05;;
62880;SDS011;48969;49.934;8.596;2023-04-25T08:56:38;6.07;;;3.70;;
62880;SDS011;48969;49.934;8.596;2023-04-25T08:59:04;6.25;;;3.83;;
62880;SDS011;48969;49.934;8.596;2023-04-25T09:01:29;5.97;;;3.60;;
62880;SDS011;48969;49.934;8.596;2023-04-25T09:03:55;5.65;;;3.58;;
62880;SDS011;48969;49.934;8.596;2023-04-25T09:06:20;5.40;;;3.58;;
62880;SDS011;48969;49.934;8.596;2023-04-25T09:08:46;5.15;;;3.13;;
62880;SDS011;48969;49.934;8.596;2023-04-25T09:11:12;3.72;;;3.25;;
62880;SDS011;48969;49.934;8.596;2023-04-25T09:13:37;4.78;;;3.22;;
62880;SDS011;48969;49.934;8.596;2023-04-25T09:16:03;4.95;;;3.45;;
62880;SDS011;48969;49.934;8.596;2023-04-25T09:18:29;6.65;;;3.70;;
62880;SDS011;48969;49.934;8.596;2023-04-25T09:20:55;7.57;;;4.18;;
62880;SDS011;48969;49.934;8.596;2023-04-25T09:23:21;6.82;;;4.10;;
62880;SDS011;48969;49.934;8.596;2023-04-25T09:25:50;9.13;;;4.38;;
62880;SDS011;48969;49.934;8.596;2023-04-25T09:28:16;7.25;;;4.45;;
62880;SDS011;48969;49.934;8.596;2023-04-25T09:30:41;4.55;;;3.60;;
62880;SDS011;48969;49.934;8.596;2023-04-25T09:33:07;6.50;;;3.85;;
62880;SDS011;48969;49.934;8.596;2023-04-25T09:35:36;6.32;;;3.88;;
62880;SDS011;48969;49.934;8.596;2023-04-25T09:38:06;6.05;;;3.97;;
62880;SDS011;48969;49.934;8.596;2023-04-25T09:40:31;5.90;;;4.10;;
62880;SDS011;48969;49.934;8.596;2023-04-25T09:42:57;5.60;;;3.92;;
62880;SDS011;48969;49.934;8.596;2023-04-25T09:45:24;5.43;;;3.78;;
62880;SDS011;48969;49.934;8.596;2023-04-25T09:47:49;5.40;;;3.57;;
62880;SDS011;48969;49.934;8.596;2023-04-25T09:50:16;4.60;;;3.60;;
62880;SDS011;48969;49.934;8.596;2023-04-25T09:52:42;5.65;;;3.70;;
62880;SDS011;48969;49.934;8.596;2023-04-25T09:55:07;6.45;;;3.67;;
62880;SDS011;48969;49.934;8.596;2023-04-25T09:57:32;6.07;;;4.03;;
62880;SDS011;48969;49.934;8.596;2023-04-25T09:59:58;7.43;;;3.92;;
62880;SDS011;48969;49.934;8.596;2023-04-25T10:02:25;6.30;;;3.83;;
62880;SDS011;48969;49.934;8.596;2023-04-25T10:04:51;9.75;;;4.15;;
62880;SDS011;48969;49.934;8.596;2023-04-25T10:07:19;7.60;;;4.45;;
62880;SDS011;48969;49.934;8.596;2023-04-25T10:09:47;9.63;;;5.15;;
62880;SDS011;48969;49.934;8.596;2023-04-25T10:12:12;7.78;;;4.68;;
62880;SDS011;48969;49.934;8.596;2023-04-25T10:14:37;9.07;;;4.80;;
62880;SDS011;48969;49.934;8.596;2023-04-25T10:17:03;6.97;;;5.13;;
62880;SDS011;48969;49.934;8.596;2023-04-25T10:19:28;6.88;;;5.60;;
62880;SDS011;48969;49.934;8.596;2023-04-25T10:22:06;6.40;;;5.53;;
62880;SDS011;48969;49.934;8.596;2023-04-25T10:24:32;7.82;;;5.13;;
62880;SDS011;48969;49.934;8.596;2023-04-25T10:26:57;7.47;;;5.68;;
62880;SDS011;48969;49.934;8.596;2023-04-25T10:29:24;7.47;;;5.43;;
62880;SDS011;48969;49.934;8.596;2023-04-25T10:31:49;6.80;;;5.47;;
62880;SDS011;48969;49.934;8.596;2023-04-25T10:34:15;10.20;;;6.93;;
62880;SDS011;48969;49.934;8.596;2023-04-25T10:36:40;6.63;;;5.88;;
62880;SDS011;48969;49.934;8.596;2023-04-25T10:39:06;7.57;;;5.72;;
62880;SDS011;48969;49.934;8.596;2023-04-25T10:41:53;8.93;;;6.05;;
62880;SDS011;48969;49.934;8.596;2023-04-25T10:44:18;7.97;;;5.43;;
62880;SDS011;48969;49.934;8.596;2023-04-25T10:46:44;8.82;;;5.97;;
62880;SDS011;48969;49.934;8.596;2023-04-25T10:49:09;6.63;;;5.07;;
62880;SDS011;48969;49.934;8.596;2023-04-25T10:51:36;9.48;;;6.05;;
62880;SDS011;48969;49.934;8.596;2023-04-25T10:54:04;7.72;;;6.10;;
62880;SDS011;48969;49.934;8.596;2023-04-25T10:56:31;7.85;;;5.95;;
62880;SDS011;48969;49.934;8.596;2023-04-25T11:01:27;6.63;;;4.38;;
62880;SDS011;48969;49.934;8.596;2023-04-25T11:04:00;8.55;;;5.13;;
62880;SDS011;48969;49.934;8.596;2023-04-25T11:06:37;8.27;;;5.30;;
62880;SDS011;48969;49.934;8.596;2023-04-25T11:09:09;8.75;;;5.10;;
62880;SDS011;48969;49.934;8.596;2023-04-25T11:11:36;7.05;;;5.22;;
62880;SDS011;48969;49.934;8.596;2023-04-25T11:14:01;6.80;;;4.75;;
62880;SDS011;48969;49.934;8.596;2023-04-25T11:16:26;7.10;;;5.07;;
62880;SDS011;48969;49.934;8.596;2023-04-25T11:18:52;7.20;;;4.80;;
62880;SDS011;48969;49.934;8.596;2023-04-25T11:21:17;6.95;;;4.97;;
62880;SDS011;48969;49.934;8.596;2023-04-25T11:23:44;6.75;;;5.97;;
62880;SDS011;48969;49.934;8.596;2023-04-25T11:26:10;9.10;;;5.53;;
62880;SDS011;48969;49.934;8.596;2023-04-25T11:28:35;9.50;;;5.95;;
62880;SDS011;48969;49.934;8.596;2023-04-25T11:31:02;8.00;;;5.87;;
62880;SDS011;48969;49.934;8.596;2023-04-25T11:33:27;6.40;;;5.00;;
62880;SDS011;48969;49.934;8.596;2023-04-25T11:35:53;6.90;;;5.13;;
62880;SDS011;48969;49.934;8.596;2023-04-25T11:38:19;10.18;;;5.93;;
62880;SDS011;48969;49.934;8.596;2023-04-25T11:40:48;8.43;;;5.30;;
62880;SDS011;48969;49.934;8.596;2023-04-25T11:43:15;10.57;;;6.05;;
62880;SDS011;48969;49.934;8.596;2023-04-25T11:45:40;8.35;;;5.70;;
62880;SDS011;48969;49.934;8.596;2023-04-25T11:48:06;8.02;;;5.38;;
62880;SDS011;48969;49.934;8.596;2023-04-25T11:50:32;11.20;;;5.50;;
62880;SDS011;48969;49.934;8.596;2023-04-25T11:52:57;8.05;;;5.90;;
62880;SDS011;48969;49.934;8.596;2023-04-25T11:55:22;8.50;;;5.93;;
62880;SDS011;48969;49.934;8.596;2023-04-25T11:57:48;7.43;;;5.53;;
62880;SDS011;48969;49.934;8.596;2023-04-25T12:00:15;10.75;;;5.53;;
62880;SDS011;48969;49.934;8.596;2023-04-25T12:02:45;9.40;;;5.03;;
62880;SDS011;48969;49.934;8.596;2023-04-25T12:05:12;10.30;;;4.93;;
62880;SDS011;48969;49.934;8.596;2023-04-25T12:07:37;7.60;;;4.63;;
62880;SDS011;48969;49.934;8.596;2023-04-25T12:12:32;10.52;;;4.57;;
62880;SDS011;48969;49.934;8.596;2023-04-25T12:15:07;10.00;;;5.25;;
62880;SDS011;48969;49.934;8.596;2023-04-25T12:17:33;8.25;;;4.93;;
62880;SDS011;48969;49.934;8.596;2023-04-25T12:19:58;7.85;;;4.93;;
62880;SDS011;48969;49.934;8.596;2023-04-25T12:22:23;8.77;;;5.00;;
62880;SDS011;48969;49.934;8.596;2023-04-25T12:24:49;8.85;;;5.00;;
62880;SDS011;48969;49.934;8.596;2023-04-25T12:27:15;7.68;;;4.70;;
62880;SDS011;48969;49.934;8.596;2023-04-25T12:29:49;7.57;;;4.60;;
62880;SDS011;48969;49.934;8.596;2023-04-25T12:32:15;7.55;;;4.95;;
62880;SDS011;48969;49.934;8.596;2023-04-25T12:34:40;8.18;;;5.30;;
62880;SDS011;48969;49.934;8.596;2023-04-25T12:37:06;8.40;;;5.15;;
62880;SDS011;48969;49.934;8.596;2023-04-25T12:39:31;8.18;;;4.20;;
62880;SDS011;48969;49.934;8.596;2023-04-25T12:41:57;7.20;;;4.55;;
62880;SDS011;48969;49.934;8.596;2023-04-25T12:44:22;7.22;;;4.63;;
62880;SDS011;48969;49.934;8.596;2023-04-25T12:46:47;8.20;;;4.65;;
62880;SDS011;48969;49.934;8.596;2023-04-25T12:49:13;7.03;;;4.82;;
62880;SDS011;48969;49.934;8.596;2023-04-25T12:51:38;9.30;;;4.80;;
62880;SDS011;48969;49.934;8.596;2023-04-25T12:54:04;7.82;;;4.90;;
62880;SDS011;48969;49.934;8.596;2023-04-25T12:56:31;7.63;;;4.78;;
62880;SDS011;48969;49.934;8.596;2023-04-25T12:58:56;8.27;;;4.18;;
62880;SDS011;48969;49.934;8.596;2023-04-25T13:01:22;6.45;;;4.38;;
62880;SDS011;48969;49.934;8.596;2023-04-25T13:03:47;7.47;;;5.00;;
62880;SDS011;48969;49.934;8.596;2023-04-25T13:06:14;7.80;;;4.45;;
62880;SDS011;48969;49.934;8.596;2023-04-25T13:08:39;8.13;;;4.40;;
62880;SDS011;48969;49.934;8.596;2023-04-25T13:11:06;7.68;;;4.22;;
62880;SDS011;48969;49.934;8.596;2023-04-25T13:13:31;7.90;;;4.50;;
62880;SDS011;48969;49.934;8.596;2023-04-25T13:15:57;7.93;;;4.38;;
62880;SDS011;48969;49.934;8.596;2023-04-25T13:18:22;8.45;;;4.30;;
62880;SDS011;48969;49.934;8.596;2023-04-25T13:20:51;6.72;;;3.75;;
62880;SDS011;48969;49.934;8.596;2023-04-25T13:23:16;6.50;;;3.85;;
62880;SDS011;48969;49.934;8.596;2023-04-25T13:25:41;6.63;;;3.83;;
62880;SDS011;48969;49.934;8.596;2023-04-25T13:28:06;7.63;;;3.83;;
62880;SDS011;48969;49.934;8.596;2023-04-25T13:30:32;6.43;;;3.20;;
62880;SDS011;48969;49.934;8.596;2023-04-25T13:32:57;7.53;;;3.70;;
62880;SDS011;48969;49.934;8.596;2023-04-25T13:35:23;6.05;;;3.38;;
62880;SDS011;48969;49.934;8.596;2023-04-25T13:37:48;7.57;;;3.97;;
62880;SDS011;48969;49.934;8.596;2023-04-25T13:40:13;10.05;;;4.00;;
62880;SDS011;48969;49.934;8.596;2023-04-25T13:42:39;6.80;;;4.30;;
62880;SDS011;48969;49.934;8.596;2023-04-25T13:45:04;7.97;;;4.30;;
62880;SDS011;48969;49.934;8.596;2023-04-25T13:47:30;6.70;;;3.92;;
62880;SDS011;48969;49.934;8.596;2023-04-25T13:49:56;5.47;;;3.22;;
62880;SDS011;48969;49.934;8.596;2023-04-25T13:52:21;6.13;;;3.30;;
62880;SDS011;48969;49.934;8.596;2023-04-25T13:54:46;6.45;;;3.55;;
62880;SDS011;48969;49.934;8.596;2023-04-25T13:57:12;8.90;;;3.58;;
62880;SDS011;48969;49.934;8.596;2023-04-25T13:59:39;6.68;;;3.88;;
62880;SDS011;48969;49.934;8.596;2023-04-25T14:02:06;7.15;;;3.38;;
62880;SDS011;48969;49.934;8.596;2023-04-25T14:04:32;8.68;;;4.35;;
62880;SDS011;48969;49.934;8.596;2023-04-25T14:06:58;7.30;;;3.83;;
62880;SDS011;48969;49.934;8.596;2023-04-25T14:09:23;9.05;;;3.97;;
62880;SDS011;48969;49.934;8.596;2023-04-25T14:11:53;8.75;;;3.83;;
62880;SDS011;48969;49.934;8.596;2023-04-25T14:14:18;9.38;;;3.80;;
62880;SDS011;48969;49.934;8.596;2023-04-25T14:16:44;9.07;;;4.70;;
62880;SDS011;48969;49.934;8.596;2023-04-25T14:19:09;6.38;;;3.95;;
62880;SDS011;48969;49.934;8.596;2023-04-25T14:21:34;5.93;;;3.53;;
62880;SDS011;48969;49.934;8.596;2023-04-25T14:24:02;7.85;;;4.20;;
62880;SDS011;48969;49.934;8.596;2023-04-25T14:26:27;8.65;;;4.85;;
62880;SDS011;48969;49.934;8.596;2023-04-25T14:28:52;11.32;;;4.93;;
62880;SDS011;48969;49.934;8.596;2023-04-25T14:31:18;7.53;;;3.90;;
62880;SDS011;48969;49.934;8.596;2023-04-25T14:33:43;8.32;;;4.40;;
62880;SDS011;48969;49.934;8.596;2023-04-25T14:36:08;7.68;;;4.15;;
62880;SDS011;48969;49.934;8.596;2023-04-25T14:38:34;8.88;;;4.03;;
62880;SDS011;48969;49.934;8.596;2023-04-25T14:40:59;6.38;;;3.92;;
62880;SDS011;48969;49.934;8.596;2023-04-25T14:43:24;7.35;;;4.47;;